createdAt,value
2023-02-16T00:01:33.083Z,23.13
2023-02-16T00:04:04.978Z,22.25
2023-02-16T00:06:35.819Z,21.70
2023-02-16T00:09:05.153Z,18.75
2023-02-16T00:11:56.541Z,18.88
2023-02-16T00:14:27.533Z,18.88
2023-02-16T00:16:57.847Z,18.42
2023-02-16T00:19:30.250Z,21.33
2023-02-16T00:22:01.881Z,36.20
2023-02-16T00:24:35.021Z,37.55
2023-02-16T00:27:04.330Z,31.73
2023-02-16T00:29:56.649Z,34.58
2023-02-16T00:32:34.484Z,36.50
2023-02-16T00:35:12.435Z,39.80
2023-02-16T00:37:41.453Z,51.22
2023-02-16T00:40:14.526Z,67.70
2023-02-16T00:42:46.737Z,88.85
2023-02-16T00:45:22.395Z,90.95
2023-02-16T00:47:54.081Z,101.15
2023-02-16T00:50:27.723Z,81.75
2023-02-16T00:52:58.743Z,79.45
2023-02-16T00:55:30.867Z,81.03
2023-02-16T00:58:06.726Z,78.90
2023-02-16T01:00:39.617Z,74.00
2023-02-16T01:03:13.025Z,67.43
2023-02-16T01:05:41.932Z,52.60
2023-02-16T01:08:30.879Z,51.47
2023-02-16T01:11:10.440Z,67.68
2023-02-16T01:13:46.022Z,54.78
2023-02-16T01:16:19.499Z,56.63
2023-02-16T01:18:49.398Z,60.97
2023-02-16T01:21:18.993Z,62.63
2023-02-16T01:23:47.811Z,71.57
2023-02-16T01:26:18.885Z,94.40
2023-02-16T01:28:49.402Z,88.83
2023-02-16T01:31:19.909Z,95.43
2023-02-16T01:33:48.899Z,101.53
2023-02-16T01:36:24.989Z,99.38
2023-02-16T01:38:54.426Z,103.18
2023-02-16T01:41:31.719Z,105.85
2023-02-16T01:44:05.619Z,96.22
2023-02-16T01:46:45.691Z,57.00
2023-02-16T01:49:16.109Z,45.65
2023-02-16T01:51:54.131Z,39.42
2023-02-16T01:54:45.846Z,38.72
2023-02-16T01:57:28.838Z,38.90
2023-02-16T02:00:09.254Z,38.92
2023-02-16T02:02:52.578Z,39.10
2023-02-16T02:05:36.015Z,39.38
2023-02-16T02:08:19.403Z,37.97
2023-02-16T02:10:59.312Z,38.28
2023-02-16T02:13:34.313Z,34.53
2023-02-16T02:16:07.082Z,35.88
2023-02-16T02:18:38.104Z,38.03
2023-02-16T02:22:10.613Z,40.47
2023-02-16T02:25:15.624Z,40.25
2023-02-16T02:27:56.716Z,34.10
2023-02-16T02:30:40.959Z,37.03
2023-02-16T02:33:22.752Z,38.60
2023-02-16T02:35:59.552Z,41.58
2023-02-16T02:38:39.678Z,44.50
2023-02-16T02:41:17.368Z,45.05
2023-02-16T02:43:52.923Z,44.50
2023-02-16T02:46:26.890Z,47.73
2023-02-16T02:48:56.430Z,116.72
2023-02-16T02:51:31.945Z,68.30
2023-02-16T02:54:25.572Z,53.90
2023-02-16T02:57:22.197Z,52.90
2023-02-16T03:00:18.913Z,57.70
2023-02-16T03:02:55.328Z,55.57
2023-02-16T03:05:28.028Z,53.70
2023-02-16T03:08:06.657Z,52.65
2023-02-16T03:10:56.834Z,51.08
2023-02-16T03:13:30.224Z,50.85
2023-02-16T03:16:04.668Z,54.00
2023-02-16T03:19:05.502Z,50.78
2023-02-16T03:21:53.334Z,51.80
2023-02-16T03:24:43.361Z,50.67
2023-02-16T03:27:36.007Z,50.67
2023-02-16T03:30:11.731Z,50.53
2023-02-16T03:32:42.503Z,49.92
2023-02-16T03:35:12.913Z,51.22
2023-02-16T03:37:59.336Z,50.87
2023-02-16T03:40:51.786Z,51.80
2023-02-16T03:43:26.161Z,50.30
2023-02-16T03:45:56.811Z,51.83
2023-02-16T03:48:27.436Z,47.80
2023-02-16T03:50:56.483Z,46.90
2023-02-16T03:53:25.344Z,44.53
2023-02-16T03:55:54.565Z,42.95
2023-02-16T03:58:26.794Z,40.38
2023-02-16T04:00:55.829Z,44.15
2023-02-16T04:03:24.794Z,42.28
2023-02-16T04:05:56.771Z,38.67
2023-02-16T04:08:26.363Z,37.33
2023-02-16T04:10:58.034Z,36.72
2023-02-16T04:13:26.391Z,36.00
2023-02-16T04:15:56.467Z,36.33
2023-02-16T04:18:25.607Z,36.15
2023-02-16T04:20:56.890Z,35.43
2023-02-16T04:23:25.758Z,39.63
2023-02-16T04:25:54.705Z,40.72
2023-02-16T04:28:23.524Z,42.20
2023-02-16T04:30:53.345Z,42.17
2023-02-16T04:33:22.300Z,42.25
2023-02-16T04:35:51.168Z,43.10
2023-02-16T04:38:21.475Z,43.35
2023-02-16T04:40:50.292Z,42.35
2023-02-16T04:43:19.065Z,41.47
2023-02-16T04:45:47.961Z,43.63
2023-02-16T04:48:16.967Z,42.38
2023-02-16T04:50:45.772Z,44.08
2023-02-16T04:53:14.696Z,58.58
2023-02-16T04:55:48.743Z,57.30
2023-02-16T04:58:18.232Z,67.13
2023-02-16T05:00:48.766Z,60.70
2023-02-16T05:03:17.563Z,54.97
2023-02-16T05:05:46.761Z,52.00
2023-02-16T05:08:15.546Z,51.13
2023-02-16T05:10:44.848Z,55.50
2023-02-16T05:13:50.188Z,51.33
2023-02-16T05:16:21.376Z,47.43
2023-02-16T05:18:50.836Z,48.22
2023-02-16T05:21:35.951Z,44.47
2023-02-16T05:24:06.928Z,55.05
2023-02-16T05:26:36.888Z,64.18
2023-02-16T05:29:07.783Z,49.10
2023-02-16T05:31:44.694Z,46.20
2023-02-16T05:34:14.031Z,54.08
2023-02-16T05:36:46.752Z,48.28
2023-02-16T05:39:15.730Z,56.08
2023-02-16T05:41:44.587Z,54.20
2023-02-16T05:44:17.075Z,47.80
2023-02-16T05:46:52.419Z,43.95
2023-02-16T05:49:25.032Z,48.50
2023-02-16T05:51:54.145Z,53.33
2023-02-16T05:54:25.264Z,53.40
2023-02-16T05:56:55.607Z,57.97
2023-02-16T05:59:44.673Z,54.33
2023-02-16T06:02:13.754Z,60.50
2023-02-16T06:04:44.271Z,56.30
2023-02-16T06:07:15.001Z,70.97
2023-02-16T06:09:44.324Z,64.00
2023-02-16T06:12:13.113Z,64.77
2023-02-16T06:14:43.346Z,62.50
2023-02-16T06:17:12.357Z,71.83
2023-02-16T06:19:41.165Z,78.90
2023-02-16T06:22:09.993Z,123.90
2023-02-16T06:24:39.934Z,123.87
2023-02-16T06:27:08.906Z,129.10
2023-02-16T06:29:37.781Z,103.73
2023-02-16T06:32:08.296Z,97.20
2023-02-16T06:34:37.237Z,75.63
2023-02-16T06:37:06.022Z,68.87
2023-02-16T06:39:34.957Z,78.37
2023-02-16T06:42:04.069Z,67.83
2023-02-16T06:44:32.913Z,63.00
2023-02-16T06:47:01.849Z,58.63
2023-02-16T06:49:32.273Z,60.37
2023-02-16T06:52:01.547Z,61.33
2023-02-16T06:54:30.495Z,60.00
2023-02-16T06:56:59.341Z,47.30
2023-02-16T06:59:28.209Z,43.73
2023-02-16T07:01:57.020Z,38.50
2023-02-16T07:04:25.788Z,35.50
2023-02-16T07:06:56.152Z,33.80
2023-02-16T07:09:25.189Z,36.40
2023-02-16T07:11:54.603Z,40.77
2023-02-16T07:14:23.835Z,37.60
2023-02-16T07:16:52.858Z,30.23
2023-02-16T07:19:29.126Z,30.53
2023-02-16T07:21:59.944Z,30.20
2023-02-16T07:24:33.443Z,40.83
2023-02-16T07:27:02.437Z,34.67
2023-02-16T07:29:31.395Z,29.33
2023-02-16T07:32:00.340Z,37.53
2023-02-16T07:34:29.477Z,31.10
2023-02-16T07:36:59.984Z,30.13
2023-02-16T07:39:30.190Z,31.03
2023-02-16T07:42:11.105Z,28.77
2023-02-16T07:44:39.981Z,30.20
2023-02-16T07:47:16.692Z,29.93
2023-02-16T07:49:46.296Z,28.33
2023-02-16T07:52:16.665Z,30.90
2023-02-16T07:54:50.522Z,29.87
2023-02-16T07:57:20.610Z,26.83
2023-02-16T07:59:51.750Z,25.57
2023-02-16T08:02:21.481Z,52.33
2023-02-16T08:04:52.989Z,31.60
2023-02-16T08:07:34.079Z,24.13
2023-02-16T08:10:03.812Z,24.50
2023-02-16T08:12:32.667Z,23.30
2023-02-16T08:15:05.206Z,23.50
2023-02-16T08:17:35.411Z,23.23
2023-02-16T08:20:13.515Z,31.43
2023-02-16T08:22:45.066Z,45.20
2023-02-16T08:25:16.299Z,25.43
2023-02-16T08:27:45.251Z,21.77
2023-02-16T08:30:18.994Z,23.27
2023-02-16T08:32:51.009Z,22.00
2023-02-16T08:35:29.569Z,21.30
2023-02-16T08:38:02.554Z,22.97
2023-02-16T08:40:50.503Z,23.40
2023-02-16T08:43:20.108Z,25.90
2023-02-16T08:45:49.817Z,25.70
2023-02-16T08:48:18.738Z,29.83
2023-02-16T08:50:53.909Z,24.90
2023-02-16T08:53:25.470Z,28.00
2023-02-16T08:55:56.664Z,24.67
2023-02-16T08:58:26.637Z,24.13
2023-02-16T09:00:56.637Z,28.73
2023-02-16T09:03:25.968Z,23.43
2023-02-16T09:05:55.110Z,61.60
2023-02-16T09:08:25.359Z,21.33
2023-02-16T09:10:54.953Z,26.20
2023-02-16T09:13:23.825Z,37.03
2023-02-16T09:15:54.382Z,26.07
2023-02-16T09:18:23.272Z,20.20
2023-02-16T09:20:52.118Z,20.57
2023-02-16T09:23:37.432Z,20.63
2023-02-16T09:26:08.668Z,22.60
2023-02-16T09:28:39.521Z,20.80
2023-02-16T09:31:14.033Z,21.80
2023-02-16T09:34:04.165Z,20.10
2023-02-16T09:36:33.912Z,21.77
2023-02-16T09:39:02.821Z,20.60
2023-02-16T09:41:53.731Z,23.03
2023-02-16T09:44:30.676Z,21.47
2023-02-16T09:47:03.799Z,20.70
2023-02-16T09:49:37.344Z,21.60
2023-02-16T09:52:14.057Z,22.50
2023-02-16T09:54:49.637Z,22.83
2023-02-16T09:57:27.978Z,23.10
2023-02-16T10:00:08.719Z,25.50
2023-02-16T10:02:47.207Z,21.30
2023-02-16T10:05:25.804Z,22.60
2023-02-16T10:08:14.628Z,21.00
2023-02-16T10:10:51.292Z,19.73
2023-02-16T10:13:33.424Z,21.20
2023-02-16T10:16:03.797Z,20.23
2023-02-16T10:18:36.925Z,19.60
2023-02-16T10:21:15.509Z,21.27
2023-02-16T10:23:49.921Z,20.67
2023-02-16T10:26:24.766Z,19.73
2023-02-16T10:28:57.204Z,21.07
2023-02-16T10:31:31.753Z,18.43
2023-02-16T10:34:22.629Z,18.93
2023-02-16T10:37:24.118Z,23.57
2023-02-16T10:40:00.661Z,26.90
2023-02-16T10:42:39.796Z,19.40
2023-02-16T10:45:23.807Z,19.70
2023-02-16T10:47:53.895Z,17.53
2023-02-16T10:50:27.584Z,20.13
2023-02-16T10:53:00.163Z,20.83
2023-02-16T10:55:29.280Z,17.77
2023-02-16T10:58:02.260Z,19.00
2023-02-16T11:00:48.748Z,18.43
2023-02-16T11:03:19.446Z,21.07
2023-02-16T11:05:49.230Z,18.27
2023-02-16T11:08:19.560Z,17.27
2023-02-16T11:10:51.899Z,15.53
2023-02-16T11:13:31.672Z,16.47
2023-02-16T11:16:07.101Z,15.83
2023-02-16T11:18:38.465Z,18.53
2023-02-16T11:21:08.200Z,18.10
2023-02-16T11:23:38.262Z,17.77
2023-02-16T11:26:10.300Z,17.93
2023-02-16T11:28:40.606Z,18.93
2023-02-16T11:31:18.878Z,19.30
2023-02-16T11:33:59.217Z,19.67
2023-02-16T11:36:35.068Z,25.73
2023-02-16T11:39:10.897Z,26.13
2023-02-16T11:41:44.441Z,20.80
2023-02-16T11:44:27.176Z,21.17
2023-02-16T11:46:58.949Z,20.77
2023-02-16T11:49:34.153Z,18.93
2023-02-16T11:52:18.888Z,43.47
2023-02-16T11:54:51.321Z,21.37
2023-02-16T11:57:27.182Z,19.80
2023-02-16T11:59:57.652Z,20.03
2023-02-16T12:02:48.521Z,20.93
2023-02-16T12:05:28.418Z,18.33
2023-02-16T12:08:32.080Z,18.73
2023-02-16T12:11:18.191Z,26.60
2023-02-16T12:13:54.700Z,25.73
2023-02-16T12:16:31.942Z,25.70
2023-02-16T12:19:15.464Z,23.47
2023-02-16T12:21:48.893Z,26.90
2023-02-16T12:24:36.521Z,24.53
2023-02-16T12:27:08.808Z,28.03
2023-02-16T12:29:47.912Z,26.00
2023-02-16T12:32:30.359Z,25.03
2023-02-16T12:35:25.000Z,21.50
2023-02-16T12:38:03.758Z,21.70
2023-02-16T12:40:52.958Z,23.33
2023-02-16T12:43:35.502Z,19.23
2023-02-16T12:46:12.655Z,18.53
2023-02-16T12:48:46.761Z,19.23
2023-02-16T12:51:24.008Z,19.40
2023-02-16T12:53:59.508Z,15.33
2023-02-16T12:56:32.778Z,16.00
2023-02-16T12:59:18.929Z,16.90
2023-02-16T13:01:49.584Z,14.37
2023-02-16T13:04:25.484Z,14.30
2023-02-16T13:07:03.610Z,14.17
2023-02-16T13:09:43.183Z,14.77
2023-02-16T13:12:22.392Z,15.60
2023-02-16T13:15:03.475Z,13.40
2023-02-16T13:17:38.812Z,13.97
2023-02-16T13:20:17.289Z,14.33
2023-02-16T13:23:13.549Z,17.30
2023-02-16T13:26:15.364Z,15.03
2023-02-16T13:28:58.674Z,14.67
2023-02-16T13:31:44.016Z,37.57
2023-02-16T13:34:40.908Z,21.30
2023-02-16T13:37:22.508Z,25.37
2023-02-16T13:40:27.205Z,22.37
2023-02-16T13:43:22.141Z,24.07
2023-02-16T13:45:54.380Z,18.60
2023-02-16T13:48:28.108Z,19.07
2023-02-16T13:51:00.132Z,18.40
2023-02-16T13:53:38.087Z,21.87
2023-02-16T13:56:33.162Z,17.33
2023-02-16T13:59:38.578Z,19.53
2023-02-16T14:02:14.302Z,16.23
2023-02-16T14:05:02.133Z,16.97
2023-02-16T14:07:38.489Z,17.70
2023-02-16T14:10:14.203Z,17.17
2023-02-16T14:12:43.240Z,16.63
2023-02-16T14:15:22.990Z,17.97
2023-02-16T14:17:51.851Z,22.90
2023-02-16T14:20:31.101Z,21.23
2023-02-16T14:23:01.167Z,17.20
2023-02-16T14:25:36.978Z,15.57
2023-02-16T14:28:07.756Z,18.53
2023-02-16T14:30:46.445Z,18.40
2023-02-16T14:33:22.624Z,17.30
2023-02-16T14:36:09.293Z,16.40
2023-02-16T14:38:40.171Z,15.47
2023-02-16T14:41:16.135Z,17.53
2023-02-16T14:43:46.999Z,15.83
2023-02-16T14:46:48.662Z,16.37
2023-02-16T14:49:47.604Z,17.27
2023-02-16T14:52:38.447Z,15.70
2023-02-16T14:56:03.255Z,29.67
2023-02-16T14:58:37.359Z,22.80
2023-02-16T15:01:12.661Z,20.93
2023-02-16T15:03:46.647Z,18.20
2023-02-16T15:06:25.405Z,21.03
2023-02-16T15:09:00.460Z,18.97
2023-02-16T15:11:56.208Z,20.87
2023-02-16T15:14:27.219Z,20.47
2023-02-16T15:16:58.260Z,20.80
2023-02-16T15:19:32.658Z,26.87
2023-02-16T15:22:23.016Z,26.17
2023-02-16T15:25:00.106Z,30.27
2023-02-16T15:27:36.768Z,29.83
2023-02-16T15:30:24.187Z,29.37
2023-02-16T15:32:56.251Z,25.37
2023-02-16T15:35:34.602Z,20.00
2023-02-16T15:38:21.486Z,21.50
2023-02-16T15:40:55.120Z,21.27
2023-02-16T15:43:34.213Z,19.37
2023-02-16T15:46:09.068Z,20.67
2023-02-16T15:48:39.060Z,20.33
2023-02-16T15:51:15.650Z,18.07
2023-02-16T15:53:51.591Z,19.70
2023-02-16T15:56:36.134Z,21.47
2023-02-16T15:59:27.757Z,26.40
2023-02-16T16:02:03.155Z,25.10
2023-02-16T16:04:38.934Z,24.77
2023-02-16T16:07:14.872Z,24.20
2023-02-16T16:09:46.437Z,23.00
2023-02-16T16:12:19.308Z,24.93
2023-02-16T16:14:59.469Z,32.40
2023-02-16T16:17:31.793Z,33.13
2023-02-16T16:20:31.822Z,62.73
2023-02-16T16:23:05.093Z,52.20
2023-02-16T16:25:43.474Z,59.90
2023-02-16T16:28:15.357Z,90.37
2023-02-16T16:30:45.513Z,75.83
2023-02-16T16:33:16.707Z,71.43
2023-02-16T16:35:47.835Z,68.80
2023-02-16T16:38:27.872Z,59.47
2023-02-16T16:40:59.021Z,67.97
2023-02-16T16:43:32.794Z,81.47
2023-02-16T16:46:14.216Z,78.33
2023-02-16T16:48:48.177Z,96.77
2023-02-16T16:51:22.732Z,106.23
2023-02-16T16:54:00.762Z,73.10
2023-02-16T16:56:31.262Z,77.37
2023-02-16T16:59:01.648Z,71.23
2023-02-16T17:01:31.702Z,58.40
2023-02-16T17:04:01.127Z,59.00
2023-02-16T17:06:31.412Z,58.67
2023-02-16T17:09:02.811Z,52.00
2023-02-16T17:11:35.087Z,51.97
2023-02-16T17:14:10.774Z,41.80
2023-02-16T17:16:43.476Z,37.10
2023-02-16T17:19:14.122Z,39.47
2023-02-16T17:21:43.416Z,47.73
2023-02-16T17:24:14.015Z,44.83
2023-02-16T17:26:44.340Z,39.37
2023-02-16T17:29:13.506Z,40.27
2023-02-16T17:31:44.396Z,41.80
2023-02-16T17:34:14.648Z,35.87
2023-02-16T17:36:43.917Z,40.93
2023-02-16T17:39:15.719Z,48.90
2023-02-16T17:41:45.384Z,51.47
2023-02-16T17:44:14.362Z,55.57
2023-02-16T17:46:43.718Z,53.20
2023-02-16T17:49:14.050Z,51.80
2023-02-16T17:51:44.134Z,50.20
2023-02-16T17:54:15.582Z,48.47
2023-02-16T17:57:05.999Z,48.13
2023-02-16T17:59:37.190Z,42.83
2023-02-16T18:02:06.602Z,43.47
2023-02-16T18:04:42.140Z,39.67
2023-02-16T18:07:14.810Z,43.13
2023-02-16T18:09:45.800Z,37.10
2023-02-16T18:12:17.858Z,37.83
2023-02-16T18:14:47.090Z,34.83
2023-02-16T18:17:16.409Z,35.70
2023-02-16T18:19:45.926Z,34.50
2023-02-16T18:22:15.333Z,34.63
2023-02-16T18:24:45.674Z,34.60
2023-02-16T18:27:15.110Z,33.50
2023-02-16T18:29:45.121Z,37.07
2023-02-16T18:32:17.224Z,42.53
2023-02-16T18:34:46.888Z,40.40
2023-02-16T18:37:16.648Z,37.83
2023-02-16T18:39:48.847Z,36.63
2023-02-16T18:42:28.532Z,40.50
2023-02-16T18:45:16.302Z,37.30
2023-02-16T18:47:45.851Z,40.47
2023-02-16T18:50:14.925Z,41.93
2023-02-16T18:52:45.109Z,42.75
2023-02-16T18:55:20.611Z,49.90
2023-02-16T18:57:51.658Z,49.03
2023-02-16T19:00:23.080Z,45.53
2023-02-16T19:02:54.823Z,46.37
2023-02-16T19:05:25.212Z,45.53
2023-02-16T19:07:58.187Z,46.03
2023-02-16T19:10:28.757Z,44.13
2023-02-16T19:12:57.726Z,44.33
2023-02-16T19:15:28.391Z,44.27
2023-02-16T19:17:57.375Z,43.92
2023-02-16T19:20:26.244Z,42.30
2023-02-16T19:22:55.575Z,43.43
2023-02-16T19:25:24.774Z,40.23
2023-02-16T19:27:56.433Z,40.27
2023-02-16T19:30:25.608Z,40.23
2023-02-16T19:32:59.041Z,37.67
2023-02-16T19:35:28.650Z,37.17
2023-02-16T19:37:57.605Z,34.80
2023-02-16T19:40:28.211Z,36.63
2023-02-16T19:42:58.953Z,35.67
2023-02-16T19:45:28.337Z,37.53
2023-02-16T19:47:58.705Z,37.25
2023-02-16T19:50:27.642Z,37.40
2023-02-16T19:52:56.484Z,39.03
2023-02-16T19:55:25.567Z,34.17
2023-02-16T19:57:54.878Z,33.40
2023-02-16T20:00:25.275Z,34.00
2023-02-16T20:02:54.464Z,33.95
2023-02-16T20:05:23.613Z,32.63
2023-02-16T20:07:52.469Z,31.02
2023-02-16T20:10:28.562Z,30.92
2023-02-16T20:12:57.587Z,30.77
2023-02-16T20:15:28.190Z,32.28
2023-02-16T20:17:56.994Z,33.50
2023-02-16T20:20:25.956Z,33.80
2023-02-16T20:22:55.038Z,32.88
2023-02-16T20:25:23.897Z,31.33
2023-02-16T20:28:00.461Z,28.88
2023-02-16T20:30:31.137Z,29.10
2023-02-16T20:33:00.228Z,29.35
2023-02-16T20:35:29.237Z,26.75
2023-02-16T20:37:58.110Z,28.48
2023-02-16T20:40:27.069Z,30.67
2023-02-16T20:42:55.889Z,31.17
2023-02-16T20:45:25.157Z,32.40
2023-02-16T20:47:55.392Z,34.88
2023-02-16T20:50:24.426Z,34.08
2023-02-16T20:52:53.296Z,34.22
2023-02-16T20:55:22.602Z,34.85
2023-02-16T20:57:52.419Z,34.22
2023-02-16T21:00:24.213Z,32.55
2023-02-16T21:02:55.151Z,32.30
2023-02-16T21:05:25.026Z,33.17
2023-02-16T21:07:53.904Z,33.05
2023-02-16T21:10:22.752Z,33.60
2023-02-16T21:12:51.654Z,34.30
2023-02-16T21:15:20.737Z,35.78
2023-02-16T21:17:49.502Z,36.35
2023-02-16T21:20:19.815Z,42.95
2023-02-16T21:22:48.951Z,44.55
2023-02-16T21:25:18.102Z,43.55
2023-02-16T21:27:47.114Z,44.17
2023-02-16T21:30:16.761Z,43.83
2023-02-16T21:32:45.635Z,44.42
2023-02-16T21:35:14.478Z,45.42
2023-02-16T21:37:44.710Z,43.30
2023-02-16T21:40:32.513Z,42.10
2023-02-16T21:43:01.473Z,39.67
2023-02-16T21:45:30.377Z,38.58
2023-02-16T21:48:16.657Z,35.75
2023-02-16T21:50:45.577Z,37.10
2023-02-16T21:53:15.822Z,35.00
2023-02-16T21:56:01.966Z,34.72
2023-02-16T21:58:49.813Z,35.70
2023-02-16T22:01:23.308Z,36.13
2023-02-16T22:03:56.323Z,36.85
2023-02-16T22:06:26.506Z,38.28
2023-02-16T22:08:57.049Z,38.25
2023-02-16T22:11:26.284Z,38.33
2023-02-16T22:13:56.468Z,38.47
2023-02-16T22:16:46.552Z,37.83
2023-02-16T22:19:17.548Z,38.30
2023-02-16T22:21:48.129Z,39.45
2023-02-16T22:24:20.111Z,39.22
2023-02-16T22:26:51.183Z,39.30
2023-02-16T22:29:20.430Z,38.65
2023-02-16T22:31:50.868Z,38.47
2023-02-16T22:34:21.356Z,37.20
2023-02-16T22:36:50.603Z,36.45
2023-02-16T22:39:21.237Z,36.80
2023-02-16T22:41:51.190Z,36.65
2023-02-16T22:44:20.100Z,38.42
2023-02-16T22:46:49.065Z,39.13
2023-02-16T22:49:17.904Z,37.25
2023-02-16T22:52:05.633Z,36.70
2023-02-16T22:54:36.041Z,34.15
2023-02-16T22:57:07.335Z,33.08
2023-02-16T22:59:36.347Z,34.28
2023-02-16T23:02:05.123Z,33.47
2023-02-16T23:04:34.037Z,35.22
2023-02-16T23:07:02.856Z,37.30
2023-02-16T23:09:31.660Z,36.47
2023-02-16T23:12:02.280Z,37.50
2023-02-16T23:14:31.067Z,37.45
2023-02-16T23:17:00.336Z,37.22
2023-02-16T23:19:29.308Z,38.17
2023-02-16T23:21:58.060Z,37.33
2023-02-16T23:24:27.102Z,37.40
2023-02-16T23:26:56.546Z,38.53
2023-02-16T23:29:27.856Z,38.40
2023-02-16T23:31:56.772Z,38.58
2023-02-16T23:34:25.576Z,38.47
2023-02-16T23:36:54.409Z,39.88
2023-02-16T23:39:23.291Z,40.65
2023-02-16T23:41:52.071Z,41.97
2023-02-16T23:44:21.006Z,41.58
2023-02-16T23:46:51.441Z,42.42
2023-02-16T23:49:20.332Z,41.15
2023-02-16T23:51:49.098Z,40.72
2023-02-16T23:54:17.868Z,40.38
2023-02-16T23:56:46.812Z,38.35
2023-02-16T23:59:15.892Z,39.17
